createdAt,value
2022-10-29T00:00:57.662Z,14.87
2022-10-29T00:03:37.360Z,14.86
2022-10-29T00:06:08.148Z,14.79
2022-10-29T00:08:37.814Z,14.79
2022-10-29T00:11:09.685Z,14.80
2022-10-29T00:13:37.735Z,14.81
2022-10-29T00:16:14.613Z,14.78
2022-10-29T00:18:42.482Z,14.75
2022-10-29T00:21:15.006Z,14.73
2022-10-29T00:23:42.510Z,14.69
2022-10-29T00:26:10.272Z,14.68
2022-10-29T00:28:38.392Z,14.61
2022-10-29T00:31:14.099Z,14.58
2022-10-29T00:33:42.301Z,14.54
2022-10-29T00:36:16.186Z,14.54
2022-10-29T00:38:44.097Z,14.57
2022-10-29T00:41:16.175Z,14.56
2022-10-29T00:44:10.577Z,14.53
2022-10-29T00:49:11.439Z,14.51
2022-10-29T00:51:39.527Z,14.47
2022-10-29T00:54:16.390Z,14.45
2022-10-29T00:56:50.656Z,14.43
2022-10-29T00:59:18.590Z,14.41
2022-10-29T01:01:48.907Z,14.38
2022-10-29T01:04:18.647Z,14.35
2022-10-29T01:06:47.215Z,14.29
2022-10-29T01:09:14.873Z,14.23
2022-10-29T01:12:15.001Z,14.19
2022-10-29T01:15:13.107Z,14.20
2022-10-29T01:18:12.413Z,14.18
2022-10-29T01:21:45.298Z,14.15
2022-10-29T01:24:33.916Z,14.14
2022-10-29T01:27:41.919Z,14.14
2022-10-29T01:30:24.604Z,14.10
2022-10-29T01:33:15.050Z,14.08
2022-10-29T01:36:04.740Z,14.08
2022-10-29T01:38:39.222Z,14.07
2022-10-29T01:41:57.266Z,14.08
2022-10-29T01:44:44.278Z,14.08
2022-10-29T01:47:20.874Z,14.06
2022-10-29T01:50:01.838Z,14.07
2022-10-29T01:52:35.179Z,14.08
2022-10-29T01:55:02.412Z,14.08
2022-10-29T01:57:29.291Z,14.07
2022-10-29T02:00:09.193Z,14.09
2022-10-29T02:03:29.902Z,14.07
2022-10-29T02:06:15.589Z,14.02
2022-10-29T02:09:20.622Z,13.98
2022-10-29T02:12:04.664Z,13.94
2022-10-29T02:14:48.101Z,13.92
2022-10-29T02:17:14.980Z,13.91
2022-10-29T02:19:42.211Z,13.92
2022-10-29T02:22:09.133Z,13.92
2022-10-29T02:24:36.140Z,13.92
2022-10-29T02:27:03.018Z,13.92
2022-10-29T02:29:29.881Z,13.93
2022-10-29T02:31:57.015Z,13.90
2022-10-29T02:34:23.941Z,13.88
2022-10-29T02:36:50.785Z,13.86
2022-10-29T02:39:17.727Z,13.83
2022-10-29T02:41:44.812Z,13.79
2022-10-29T02:44:11.589Z,13.76
2022-10-29T02:46:41.983Z,13.72
2022-10-29T02:49:08.831Z,13.73
2022-10-29T02:51:35.727Z,13.73
2022-10-29T02:54:02.803Z,13.70
2022-10-29T02:56:29.679Z,13.70
2022-10-29T02:58:56.568Z,13.69
2022-10-29T03:01:23.867Z,13.71
2022-10-29T03:03:50.873Z,13.69
2022-10-29T03:06:19.965Z,13.69
2022-10-29T03:08:47.837Z,13.73
2022-10-29T03:11:14.663Z,13.73
2022-10-29T03:13:41.542Z,13.75
2022-10-29T03:16:09.027Z,13.73
2022-10-29T03:18:36.064Z,13.70
2022-10-29T03:21:03.100Z,13.66
2022-10-29T03:23:30.140Z,13.63
2022-10-29T03:25:57.195Z,13.56
2022-10-29T03:28:27.905Z,13.50
2022-10-29T03:30:55.024Z,13.47
2022-10-29T03:33:22.087Z,13.47
2022-10-29T03:35:48.965Z,13.42
2022-10-29T03:38:16.000Z,13.40
2022-10-29T03:40:43.039Z,13.34
2022-10-29T03:43:10.099Z,13.31
2022-10-29T03:45:37.176Z,13.30
2022-10-29T03:48:05.246Z,13.33
2022-10-29T03:50:32.000Z,13.31
2022-10-29T03:52:59.189Z,13.29
2022-10-29T03:55:29.105Z,13.32
2022-10-29T03:57:56.625Z,13.36
2022-10-29T04:00:23.732Z,13.34
2022-10-29T04:03:29.220Z,13.32
2022-10-29T04:05:56.661Z,13.30
2022-10-29T04:08:23.855Z,13.30
2022-10-29T04:10:51.306Z,13.29
2022-10-29T04:13:19.536Z,13.32
2022-10-29T04:15:46.962Z,13.36
2022-10-29T04:18:14.096Z,13.39
2022-10-29T04:21:05.759Z,13.41
2022-10-29T04:29:03.920Z,13.36
2022-10-29T04:31:31.099Z,13.32
2022-10-29T04:33:57.913Z,13.28
2022-10-29T04:36:24.818Z,13.23
2022-10-29T04:38:51.972Z,13.21
2022-10-29T04:41:18.798Z,13.21
2022-10-29T04:43:45.908Z,13.20
2022-10-29T04:46:13.147Z,13.14
2022-10-29T04:48:40.096Z,13.11
2022-10-29T04:51:07.215Z,13.09
2022-10-29T04:53:34.018Z,13.05
2022-10-29T04:56:03.558Z,13.02
2022-10-29T04:58:30.348Z,12.97
2022-10-29T05:01:05.435Z,12.95
2022-10-29T05:03:33.784Z,12.91
2022-10-29T05:06:06.030Z,12.85
2022-10-29T05:08:33.619Z,12.82
2022-10-29T05:11:06.030Z,12.76
2022-10-29T05:13:33.398Z,12.68
2022-10-29T05:16:00.479Z,12.71
2022-10-29T05:18:27.562Z,12.79
2022-10-29T05:20:56.194Z,12.81
2022-10-29T05:23:24.100Z,12.81
2022-10-29T05:25:52.426Z,12.80
2022-10-29T05:28:23.329Z,12.78
2022-10-29T05:30:52.828Z,12.74
2022-10-29T05:33:23.667Z,12.73
2022-10-29T05:35:51.484Z,12.69
2022-10-29T05:38:19.192Z,12.67
2022-10-29T05:40:46.776Z,12.71
2022-10-29T05:43:16.040Z,12.73
2022-10-29T05:45:43.870Z,12.69
2022-10-29T05:50:45.172Z,12.66
2022-10-29T05:53:14.757Z,12.67
2022-10-29T05:55:42.719Z,12.64
2022-10-29T05:58:14.037Z,12.64
2022-10-29T06:00:44.971Z,12.63
2022-10-29T06:03:22.798Z,12.59
2022-10-29T06:05:51.174Z,12.58
2022-10-29T06:08:18.824Z,12.56
2022-10-29T06:10:46.040Z,12.53
2022-10-29T06:13:19.318Z,12.47
2022-10-29T06:15:48.008Z,12.48
2022-10-29T06:18:15.286Z,12.45
2022-10-29T06:20:43.729Z,12.44
2022-10-29T06:23:11.873Z,12.46
2022-10-29T06:25:39.025Z,12.51
2022-10-29T06:28:09.597Z,12.51
2022-10-29T06:30:37.142Z,12.48
2022-10-29T06:33:05.741Z,12.47
2022-10-29T06:38:07.756Z,12.43
2022-10-29T06:40:40.196Z,12.44
2022-10-29T06:43:10.821Z,12.46
2022-10-29T06:45:38.946Z,12.56
2022-10-29T06:48:06.559Z,12.60
2022-10-29T06:50:34.533Z,12.61
2022-10-29T06:53:05.107Z,12.64
2022-10-29T06:55:34.304Z,12.66
2022-10-29T06:58:05.341Z,12.66
2022-10-29T07:00:34.794Z,12.65
2022-10-29T07:03:04.997Z,12.73
2022-10-29T07:05:33.600Z,12.78
2022-10-29T07:08:02.037Z,12.79
2022-10-29T07:10:31.747Z,12.85
2022-10-29T07:12:59.654Z,12.86
2022-10-29T07:15:28.006Z,12.88
2022-10-29T07:18:07.740Z,12.90
2022-10-29T07:20:42.930Z,12.89
2022-10-29T07:23:12.064Z,12.83
2022-10-29T07:25:40.420Z,12.80
2022-10-29T07:28:17.009Z,12.81
2022-10-29T07:30:45.073Z,12.83
2022-10-29T07:33:12.763Z,12.89
2022-10-29T07:35:39.735Z,12.85
2022-10-29T07:38:10.888Z,12.85
2022-10-29T07:40:50.128Z,12.82
2022-10-29T07:43:19.333Z,12.77
2022-10-29T07:45:49.920Z,12.81
2022-10-29T07:48:19.064Z,12.85
2022-10-29T07:50:47.082Z,12.84
2022-10-29T07:53:14.316Z,12.83
2022-10-29T07:55:41.098Z,12.89
2022-10-29T07:58:12.455Z,12.95
2022-10-29T08:00:42.008Z,12.92
2022-10-29T08:03:12.458Z,12.93
2022-10-29T08:05:42.692Z,13.01
2022-10-29T08:08:10.487Z,13.11
2022-10-29T08:10:37.573Z,13.14
2022-10-29T08:13:06.908Z,13.17
2022-10-29T08:16:02.219Z,13.19
2022-10-29T08:18:30.729Z,13.17
2022-10-29T08:20:58.165Z,13.19
2022-10-29T08:23:25.515Z,13.17
2022-10-29T08:25:52.358Z,13.15
2022-10-29T08:28:20.872Z,13.11
2022-10-29T08:30:52.272Z,13.19
2022-10-29T08:33:20.710Z,13.28
2022-10-29T08:35:47.712Z,13.34
2022-10-29T08:38:16.059Z,13.41
2022-10-29T08:41:21.673Z,13.54
2022-10-29T08:45:03.796Z,13.71
2022-10-29T08:48:28.158Z,13.76
2022-10-29T08:51:09.677Z,13.80
2022-10-29T08:53:58.646Z,13.85
2022-10-29T08:56:38.879Z,13.89
2022-10-29T08:59:17.259Z,13.93
2022-10-29T09:01:45.143Z,13.96
2022-10-29T09:04:37.963Z,14.01
2022-10-29T09:07:45.690Z,14.07
2022-10-29T09:10:55.432Z,14.18
2022-10-29T09:13:50.462Z,14.27
2022-10-29T09:17:21.080Z,14.35
2022-10-29T09:20:19.614Z,14.40
2022-10-29T09:23:12.681Z,14.49
2022-10-29T09:26:01.520Z,14.62
2022-10-29T09:28:44.912Z,14.70
2022-10-29T09:31:37.525Z,14.73
2022-10-29T09:34:31.892Z,14.78
2022-10-29T09:36:59.715Z,14.85
2022-10-29T09:39:39.814Z,14.88
2022-10-29T09:42:21.961Z,14.90
2022-10-29T09:45:02.710Z,14.93
2022-10-29T09:47:59.503Z,15.00
2022-10-29T09:50:39.635Z,15.04
2022-10-29T09:53:08.768Z,15.10
2022-10-29T09:55:43.470Z,15.12
2022-10-29T09:58:21.253Z,15.15
2022-10-29T10:00:48.071Z,15.23
2022-10-29T10:03:37.948Z,15.30
2022-10-29T10:06:08.882Z,15.37
2022-10-29T10:09:00.759Z,15.43
2022-10-29T10:11:38.731Z,15.50
2022-10-29T10:14:21.666Z,15.59
2022-10-29T10:16:58.921Z,15.67
2022-10-29T10:19:30.214Z,15.71
2022-10-29T10:22:00.793Z,15.81
2022-10-29T10:24:38.587Z,15.87
2022-10-29T10:27:29.651Z,15.92
2022-10-29T10:30:17.963Z,15.99
2022-10-29T10:32:44.922Z,16.05
2022-10-29T10:35:28.994Z,16.11
2022-10-29T10:37:57.154Z,16.18
2022-10-29T10:40:25.899Z,16.25
2022-10-29T10:42:55.560Z,16.34
2022-10-29T10:45:39.151Z,16.41
2022-10-29T10:48:11.315Z,16.48
2022-10-29T10:50:38.616Z,16.56
2022-10-29T10:53:20.951Z,16.63
2022-10-29T10:55:58.024Z,16.73
2022-10-29T10:58:36.543Z,16.83
2022-10-29T11:01:20.330Z,16.93
2022-10-29T11:03:59.829Z,17.10
2022-10-29T11:06:37.595Z,17.22
2022-10-29T11:09:28.714Z,17.31
2022-10-29T11:12:35.919Z,17.39
2022-10-29T11:15:26.128Z,17.52
2022-10-29T11:18:10.422Z,17.59
2022-10-29T11:20:43.533Z,17.65
2022-10-29T11:23:36.386Z,17.76
2022-10-29T11:26:13.905Z,17.89
2022-10-29T11:28:48.795Z,17.96
2022-10-29T11:31:31.509Z,18.01
2022-10-29T11:34:04.683Z,18.08
2022-10-29T11:36:42.815Z,18.10
2022-10-29T11:39:30.816Z,18.14
2022-10-29T11:42:02.231Z,18.14
2022-10-29T11:44:38.691Z,18.17
2022-10-29T11:47:28.666Z,18.21
2022-10-29T11:50:22.139Z,18.25
2022-10-29T11:53:25.268Z,18.32
2022-10-29T11:56:22.120Z,18.33
2022-10-29T11:59:24.076Z,18.34
2022-10-29T12:02:25.287Z,18.34
2022-10-29T12:05:01.638Z,18.32
2022-10-29T12:07:52.130Z,18.30
2022-10-29T12:10:32.138Z,18.29
2022-10-29T12:13:42.873Z,18.27
2022-10-29T12:16:53.774Z,18.27
2022-10-29T12:19:40.777Z,18.25
2022-10-29T12:22:18.123Z,18.26
2022-10-29T12:25:16.288Z,18.30
2022-10-29T12:27:59.906Z,18.32
2022-10-29T12:30:35.651Z,18.33
2022-10-29T12:33:28.837Z,18.33
2022-10-29T12:36:46.539Z,18.39
2022-10-29T12:39:31.337Z,18.45
2022-10-29T12:42:24.218Z,18.49
2022-10-29T12:45:27.253Z,18.54
2022-10-29T12:48:18.579Z,18.57
2022-10-29T12:51:06.834Z,18.59
2022-10-29T12:54:05.898Z,18.62
2022-10-29T12:56:33.673Z,18.64
2022-10-29T12:59:39.423Z,18.64
2022-10-29T13:02:38.542Z,18.68
2022-10-29T13:05:11.724Z,18.68
2022-10-29T13:07:48.156Z,18.69
2022-10-29T13:10:24.708Z,18.70
2022-10-29T13:13:00.941Z,18.71
2022-10-29T13:15:43.244Z,18.73
2022-10-29T13:18:13.050Z,18.77
2022-10-29T13:20:48.808Z,18.79
2022-10-29T13:23:21.819Z,18.79
2022-10-29T13:25:59.193Z,18.80
2022-10-29T13:28:28.624Z,18.83
2022-10-29T13:31:02.689Z,18.83
2022-10-29T13:33:29.685Z,18.84
2022-10-29T13:36:16.426Z,18.83
2022-10-29T13:39:06.760Z,18.84
2022-10-29T13:41:43.371Z,18.84
2022-10-29T13:44:24.219Z,18.84
2022-10-29T13:47:00.552Z,18.84
2022-10-29T13:49:33.231Z,18.84
2022-10-29T13:52:10.363Z,18.83
2022-10-29T13:54:47.483Z,18.84
2022-10-29T13:57:34.782Z,18.83
2022-10-29T14:00:24.326Z,18.82
2022-10-29T14:03:04.597Z,18.83
2022-10-29T14:05:51.231Z,18.81
2022-10-29T14:08:35.297Z,18.82
2022-10-29T14:11:13.933Z,18.79
2022-10-29T14:13:48.112Z,18.79
2022-10-29T14:16:20.516Z,18.78
2022-10-29T14:18:51.767Z,18.76
2022-10-29T14:21:37.461Z,18.74
2022-10-29T14:24:10.878Z,18.73
2022-10-29T14:26:41.545Z,18.71
2022-10-29T14:29:26.164Z,18.68
2022-10-29T14:32:18.584Z,18.65
2022-10-29T14:34:50.280Z,18.65
2022-10-29T14:37:36.856Z,18.63
2022-10-29T14:40:19.377Z,18.60
2022-10-29T14:42:57.240Z,18.57
2022-10-29T14:45:28.847Z,18.56
2022-10-29T14:48:00.844Z,18.54
2022-10-29T14:50:31.341Z,18.52
2022-10-29T14:53:03.720Z,18.49
2022-10-29T14:55:45.237Z,18.45
2022-10-29T14:58:12.279Z,18.43
2022-10-29T15:01:02.050Z,18.42
2022-10-29T15:03:35.692Z,18.40
2022-10-29T15:06:19.118Z,18.39
2022-10-29T15:09:19.978Z,18.37
2022-10-29T15:12:17.880Z,18.35
2022-10-29T15:14:53.789Z,18.33
2022-10-29T15:17:26.711Z,18.31
2022-10-29T15:20:06.350Z,18.30
2022-10-29T15:22:41.457Z,18.30
2022-10-29T15:25:20.946Z,18.30
2022-10-29T15:27:49.266Z,18.31
2022-10-29T15:30:22.806Z,18.28
2022-10-29T15:32:51.231Z,18.24
2022-10-29T15:36:18.092Z,18.21
2022-10-29T15:39:07.676Z,18.21
2022-10-29T15:41:47.998Z,18.20
2022-10-29T15:44:32.911Z,18.17
2022-10-29T15:47:03.258Z,18.15
2022-10-29T15:49:32.616Z,18.14
2022-10-29T15:52:00.915Z,18.12
2022-10-29T15:54:29.121Z,18.12
2022-10-29T15:56:56.121Z,18.11
2022-10-29T15:59:26.451Z,18.09
2022-10-29T16:01:53.645Z,18.08
2022-10-29T16:04:20.646Z,18.06
2022-10-29T16:06:47.814Z,18.06
2022-10-29T16:09:59.291Z,18.06
2022-10-29T16:12:26.495Z,18.02
2022-10-29T16:14:53.391Z,18.00
2022-10-29T16:17:21.187Z,18.00
2022-10-29T16:19:48.558Z,17.97
2022-10-29T16:22:24.754Z,17.94
2022-10-29T16:24:51.785Z,17.93
2022-10-29T16:27:18.806Z,17.91
2022-10-29T16:29:47.129Z,17.90
2022-10-29T16:32:17.274Z,17.88
2022-10-29T16:34:45.187Z,17.85
2022-10-29T16:37:15.239Z,17.83
2022-10-29T16:39:42.791Z,17.80
2022-10-29T16:42:29.939Z,17.76
2022-10-29T16:44:57.735Z,17.77
2022-10-29T16:47:25.098Z,17.76
2022-10-29T16:49:54.875Z,17.73
2022-10-29T16:52:29.950Z,17.73
2022-10-29T16:54:57.600Z,17.72
2022-10-29T16:58:13.951Z,17.73
2022-10-29T17:00:41.857Z,17.71
2022-10-29T17:03:12.562Z,17.69
2022-10-29T17:05:44.062Z,17.66
2022-10-29T17:08:12.787Z,17.66
2022-10-29T17:10:40.604Z,17.64
2022-10-29T17:13:30.662Z,17.62
2022-10-29T17:15:58.026Z,17.62
2022-10-29T17:18:38.489Z,17.59
2022-10-29T17:21:21.425Z,17.57
2022-10-29T17:23:48.709Z,17.57
2022-10-29T17:26:35.873Z,17.53
2022-10-29T17:29:58.365Z,17.51
2022-10-29T17:32:26.417Z,17.50
2022-10-29T17:34:53.662Z,17.48
2022-10-29T17:37:20.498Z,17.45
2022-10-29T17:39:47.696Z,17.44
2022-10-29T17:42:14.591Z,17.44
2022-10-29T17:45:15.916Z,17.43
2022-10-29T17:47:42.913Z,17.41
2022-10-29T17:50:10.016Z,17.37
2022-10-29T17:52:37.526Z,17.34
2022-10-29T17:55:58.120Z,17.29
2022-10-29T17:58:25.290Z,17.29
2022-10-29T18:00:52.756Z,17.27
2022-10-29T18:03:20.171Z,17.28
2022-10-29T18:05:47.239Z,17.27
2022-10-29T18:08:14.251Z,17.28
2022-10-29T18:10:41.760Z,17.27
2022-10-29T18:13:08.665Z,17.25
2022-10-29T18:15:58.673Z,17.23
2022-10-29T18:18:25.700Z,17.22
2022-10-29T18:20:53.156Z,17.21
2022-10-29T18:23:20.014Z,17.21
2022-10-29T18:26:06.560Z,17.16
2022-10-29T18:28:36.564Z,17.17
2022-10-29T18:31:31.320Z,17.16
2022-10-29T18:34:06.042Z,17.18
2022-10-29T18:37:22.023Z,17.18
2022-10-29T18:39:48.919Z,17.18
2022-10-29T18:42:15.870Z,17.16
2022-10-29T18:44:42.728Z,17.16
2022-10-29T18:48:03.714Z,17.13
2022-10-29T18:50:31.864Z,17.10
2022-10-29T18:52:59.369Z,17.09
2022-10-29T18:55:27.242Z,17.07
2022-10-29T18:58:18.731Z,17.03
2022-10-29T19:01:54.641Z,17.00
2022-10-29T19:04:31.839Z,16.97
2022-10-29T19:06:58.791Z,16.90
2022-10-29T19:09:26.602Z,16.86
2022-10-29T19:11:56.726Z,16.84
2022-10-29T19:14:33.489Z,16.80
2022-10-29T19:17:01.446Z,16.80
2022-10-29T19:19:28.780Z,16.79
2022-10-29T19:21:55.624Z,16.75
2022-10-29T19:24:22.739Z,16.75
2022-10-29T19:26:49.535Z,16.72
2022-10-29T19:29:16.826Z,16.71
2022-10-29T19:31:46.413Z,16.70
2022-10-29T19:34:13.381Z,16.71
2022-10-29T19:37:17.962Z,16.70
2022-10-29T19:39:46.461Z,16.69
2022-10-29T19:42:13.462Z,16.69
2022-10-29T19:44:40.354Z,16.70
2022-10-29T19:47:07.411Z,16.71
2022-10-29T19:49:34.881Z,16.68
2022-10-29T19:52:01.954Z,16.66
2022-10-29T19:54:28.935Z,16.65
2022-10-29T19:56:56.415Z,16.65
2022-10-29T19:59:23.763Z,16.63
2022-10-29T20:01:51.887Z,16.60
2022-10-29T20:04:18.970Z,16.60
2022-10-29T20:06:46.240Z,16.60
2022-10-29T20:09:13.170Z,16.57
2022-10-29T20:11:41.841Z,16.54
2022-10-29T20:14:08.757Z,16.51
2022-10-29T20:16:36.263Z,16.48
2022-10-29T20:19:04.760Z,16.43
2022-10-29T20:21:31.850Z,16.38
2022-10-29T20:23:59.862Z,16.36
2022-10-29T20:26:27.562Z,16.33
2022-10-29T20:28:57.168Z,16.28
2022-10-29T20:31:31.689Z,16.26
2022-10-29T20:34:01.462Z,16.25
2022-10-29T20:36:32.449Z,16.23
2022-10-29T20:39:00.360Z,16.22
2022-10-29T20:41:28.534Z,16.23
2022-10-29T20:44:02.487Z,16.19
2022-10-29T20:46:30.165Z,16.18
2022-10-29T20:48:57.616Z,16.15
2022-10-29T20:51:24.925Z,16.12
2022-10-29T20:53:53.166Z,16.09
2022-10-29T20:56:23.360Z,16.07
2022-10-29T20:58:50.459Z,16.04
2022-10-29T21:01:20.803Z,16.04
2022-10-29T21:03:50.393Z,16.02
2022-10-29T21:06:19.051Z,16.00
2022-10-29T21:08:52.201Z,15.97
2022-10-29T21:11:21.422Z,15.96
2022-10-29T21:13:49.015Z,15.93
2022-10-29T21:16:27.533Z,15.92
2022-10-29T21:19:01.203Z,15.90
2022-10-29T21:21:29.641Z,15.88
2022-10-29T21:23:57.640Z,15.86
2022-10-29T21:26:27.662Z,15.86
2022-10-29T21:28:55.394Z,15.83
2022-10-29T21:31:24.006Z,15.80
2022-10-29T21:34:07.753Z,15.77
2022-10-29T21:36:35.114Z,15.74
2022-10-29T21:39:02.239Z,15.74
2022-10-29T21:41:29.749Z,15.73
2022-10-29T21:43:57.060Z,15.72
2022-10-29T21:46:24.225Z,15.72
2022-10-29T21:48:51.171Z,15.71
2022-10-29T21:51:18.300Z,15.69
2022-10-29T21:53:45.420Z,15.68
2022-10-29T21:56:14.697Z,15.66
2022-10-29T21:58:42.530Z,15.62
2022-10-29T22:01:17.190Z,15.61
2022-10-29T22:03:46.373Z,15.61
2022-10-29T22:06:20.482Z,15.60
2022-10-29T22:08:53.632Z,15.60
2022-10-29T22:11:20.477Z,15.55
2022-10-29T22:13:47.466Z,15.49
2022-10-29T22:16:15.280Z,15.45
2022-10-29T22:18:42.180Z,15.42
2022-10-29T22:21:17.477Z,15.41
2022-10-29T22:23:54.265Z,15.39
2022-10-29T22:26:26.158Z,15.40
2022-10-29T22:28:53.670Z,15.38
2022-10-29T22:31:22.523Z,15.37
2022-10-29T22:33:50.015Z,15.36
2022-10-29T22:36:23.516Z,15.34
2022-10-29T22:38:56.427Z,15.32
2022-10-29T22:41:26.132Z,15.34
2022-10-29T22:43:54.572Z,15.35
2022-10-29T22:46:22.600Z,15.34
2022-10-29T22:48:49.838Z,15.34
2022-10-29T22:51:23.525Z,15.32
2022-10-29T22:53:52.631Z,15.30
2022-10-29T22:56:27.264Z,15.28
2022-10-29T22:58:56.239Z,15.25
2022-10-29T23:01:29.595Z,15.22
2022-10-29T23:03:58.767Z,15.21
2022-10-29T23:06:29.775Z,15.19
2022-10-29T23:08:58.638Z,15.19
2022-10-29T23:11:29.394Z,15.18
2022-10-29T23:14:02.140Z,15.16
2022-10-29T23:16:33.335Z,15.13
2022-10-29T23:19:04.254Z,15.09
2022-10-29T23:21:33.167Z,15.08
2022-10-29T23:24:00.236Z,15.08
2022-10-29T23:26:27.479Z,15.06
2022-10-29T23:28:55.185Z,15.08
2022-10-29T23:31:27.881Z,15.09
2022-10-29T23:33:58.046Z,15.09
2022-10-29T23:36:27.248Z,15.09
2022-10-29T23:38:59.195Z,15.06
2022-10-29T23:41:30.117Z,15.06
2022-10-29T23:43:58.180Z,15.06
2022-10-29T23:46:25.352Z,15.06
2022-10-29T23:48:52.473Z,15.07
2022-10-29T23:51:19.881Z,15.08
2022-10-29T23:53:50.273Z,15.08
2022-10-29T23:56:20.385Z,15.08
2022-10-29T23:58:47.174Z,15.07
